PWSweather.com
Personal Weather Stations
Station Observations
KCAOCEAN4
Jeffries Ranch, Oceanside, CA 92057

Jeffries RanchOceanside, CA 92057

Lat: 33.2463208, Lon: -117.25335080000002

Elevation: 207

Station Type: Davis Vantage Vue

jeffriesranchweather.com

High Low Average
Temperature 87.6°F30.9°C 50.9°F10.5°C 66.1°F18.9°C
Dew Point 43.5°F6.4°C 30.4°F-0.9°C 35.5°F1.9°C
Winds 6.0 mph 9.7 kmh Calm Calm 2.0 mph SE3.2 kmh SE
Wind Gusts 12.1 mph19.5 kmh 0.9 mph1.4 kmh 5.0 mph8.0 kmh
Humidity 54% 14% 35%
Pressure 30.07 in1018.3 mb 29.96 in1014.6 mb -
Precipitation 0.00 in0.0 mm - -
Hour Temp Dew Point Humidity Winds Wind Gusts Pressure Precip Precip Rate Daily Precip Total
12:08 AM 54.9°F12.7°C 36.1°F2.3°C 49% 2.0 mph SE3.2 kmh SE 4.0 mph6.4 kmh 30.06 in1017.9 mb 0.00 in0.0 mm 0.00 in0.0 mm 0.00 in0.0 mm
12:18 AM 54.1°F12.3°C 36.0°F2.2°C 50% 0.9 mph NE1.4 kmh NE 2.0 mph3.2 kmh 30.05 in1017.6 mb 0.00 in0.0 mm 0.00 in0.0 mm 0.00 in0.0 mm
12:28 AM 54.1°F12.3°C 34.9°F1.6°C 48% Calm Calm 0.9 mph1.4 kmh 30.06 in1017.9 mb 0.00 in0.0 mm 0.00 in0.0 mm 0.00 in0.0 mm
12:38 AM 54.1°F12.3°C 35.4°F1.9°C 49% 0.9 mph SE1.4 kmh SE 2.0 mph3.2 kmh 30.06 in1017.9 mb 0.00 in0.0 mm 0.00 in0.0 mm 0.00 in0.0 mm
12:48 AM 53.8°F12.1°C 34.5°F1.4°C 48% 2.0 mph E3.2 kmh E 4.0 mph6.4 kmh 30.06 in1017.9 mb 0.00 in0.0 mm 0.00 in0.0 mm 0.00 in0.0 mm
12:58 AM 54.3°F12.4°C 34.5°F1.4°C 47% 0.9 mph SE1.4 kmh SE 2.0 mph3.2 kmh 30.05 in1017.6 mb 0.00 in0.0 mm 0.00 in0.0 mm 0.00 in0.0 mm
01:08 AM 53.8°F12.1°C 35.1°F1.7°C 49% 0.9 mph ESE1.4 kmh ESE 2.0 mph3.2 kmh 30.04 in1017.3 mb 0.00 in0.0 mm 0.00 in0.0 mm 0.00 in0.0 mm
01:18 AM 54.5°F12.5°C 34.2°F1.2°C 46% 0.9 mph NNE1.4 kmh NNE 4.9 mph7.9 kmh 30.04 in1017.3 mb 0.00 in0.0 mm 0.00 in0.0 mm 0.00 in0.0 mm
01:28 AM 54.9°F12.7°C 34.0°F1.1°C 45% 2.9 mph NE4.7 kmh NE 6.9 mph11.1 kmh 30.03 in1016.9 mb 0.00 in0.0 mm 0.00 in0.0 mm 0.00 in0.0 mm
01:38 AM 56.3°F13.5°C 33.4°F0.8°C 42% 2.9 mph E4.7 kmh E 8.9 mph14.3 kmh 30.03 in1016.9 mb 0.00 in0.0 mm 0.00 in0.0 mm 0.00 in0.0 mm
01:48 AM 56.5°F13.6°C 34.9°F1.6°C 44% 0.9 mph SSE1.4 kmh SSE 4.0 mph6.4 kmh 30.03 in1016.9 mb 0.00 in0.0 mm 0.00 in0.0 mm 0.00 in0.0 mm
01:58 AM 54.1°F12.3°C 34.9°F1.6°C 48% Calm Calm 2.9 mph4.7 kmh 30.04 in1017.3 mb 0.00 in0.0 mm 0.00 in0.0 mm 0.00 in0.0 mm
02:08 AM 52.7°F11.5°C 35.1°F1.7°C 51% 0.9 mph SE1.4 kmh SE 2.9 mph4.7 kmh 30.04 in1017.3 mb 0.00 in0.0 mm 0.00 in0.0 mm 0.00 in0.0 mm
02:18 AM 53.2°F11.8°C 35.1°F1.7°C 50% 0.9 mph ENE1.4 kmh ENE 2.0 mph3.2 kmh 30.04 in1017.3 mb 0.00 in0.0 mm 0.00 in0.0 mm 0.00 in0.0 mm
02:28 AM 52.9°F11.6°C 34.2°F1.2°C 49% 0.9 mph ESE1.4 kmh ESE 4.0 mph6.4 kmh 30.04 in1017.3 mb 0.00 in0.0 mm 0.00 in0.0 mm 0.00 in0.0 mm
02:38 AM 52.0°F11.1°C 35.4°F1.9°C 53% 0.9 mph SE1.4 kmh SE 2.9 mph4.7 kmh 30.04 in1017.3 mb 0.00 in0.0 mm 0.00 in0.0 mm 0.00 in0.0 mm
02:48 AM 52.0°F11.1°C 34.3°F1.3°C 51% 0.9 mph ESE1.4 kmh ESE 2.0 mph3.2 kmh 30.05 in1017.6 mb 0.00 in0.0 mm 0.00 in0.0 mm 0.00 in0.0 mm
02:58 AM 51.3°F10.7°C 35.2°F1.8°C 54% 0.9 mph SE1.4 kmh SE 2.0 mph3.2 kmh 30.05 in1017.6 mb 0.00 in0.0 mm 0.00 in0.0 mm 0.00 in0.0 mm
03:08 AM 50.9°F10.5°C 34.9°F1.6°C 54% 0.9 mph E1.4 kmh E 3.0 mph4.8 kmh 30.05 in1017.6 mb 0.00 in0.0 mm 0.00 in0.0 mm 0.00 in0.0 mm
03:18 AM 51.3°F10.7°C 34.2°F1.2°C 52% 0.9 mph SE1.4 kmh SE 3.0 mph4.8 kmh 30.05 in1017.6 mb 0.00 in0.0 mm 0.00 in0.0 mm 0.00 in0.0 mm
03:28 AM 51.4°F10.8°C 34.9°F1.6°C 53% 0.9 mph SE1.4 kmh SE 2.0 mph3.2 kmh 30.05 in1017.6 mb 0.00 in0.0 mm 0.00 in0.0 mm 0.00 in0.0 mm
03:38 AM 52.7°F11.5°C 34.2°F1.2°C 49% 0.9 mph SSW1.4 kmh SSW 2.9 mph4.7 kmh 30.04 in1017.3 mb 0.00 in0.0 mm 0.00 in0.0 mm 0.00 in0.0 mm
03:48 AM 53.8°F12.1°C 34.0°F1.1°C 47% 0.9 mph ENE1.4 kmh ENE 2.0 mph3.2 kmh 30.05 in1017.6 mb 0.00 in0.0 mm 0.00 in0.0 mm 0.00 in0.0 mm
03:58 AM 52.9°F11.6°C 33.3°F0.7°C 47% 0.9 mph SE1.4 kmh SE 4.0 mph6.4 kmh 30.05 in1017.6 mb 0.00 in0.0 mm 0.00 in0.0 mm 0.00 in0.0 mm
04:08 AM 52.0°F11.1°C 34.9°F1.6°C 52% 0.9 mph SE1.4 kmh SE 2.9 mph4.7 kmh 30.05 in1017.6 mb 0.00 in0.0 mm 0.00 in0.0 mm 0.00 in0.0 mm
04:18 AM 53.1°F11.7°C 34.9°F1.6°C 50% Calm Calm 0.9 mph1.4 kmh 30.05 in1017.6 mb 0.00 in0.0 mm 0.00 in0.0 mm 0.00 in0.0 mm
04:28 AM 52.9°F11.6°C 33.3°F0.7°C 47% Calm Calm 2.0 mph3.2 kmh 30.05 in1017.6 mb 0.00 in0.0 mm 0.00 in0.0 mm 0.00 in0.0 mm
04:38 AM 53.1°F11.7°C 33.4°F0.8°C 47% 0.9 mph E1.4 kmh E 2.9 mph4.7 kmh 30.05 in1017.6 mb 0.00 in0.0 mm 0.00 in0.0 mm 0.00 in0.0 mm
04:48 AM 54.1°F12.3°C 32.7°F0.4°C 44% 2.0 mph ENE3.2 kmh ENE 4.0 mph6.4 kmh 30.04 in1017.3 mb 0.00 in0.0 mm 0.00 in0.0 mm 0.00 in0.0 mm
04:58 AM 54.1°F12.3°C 33.3°F0.7°C 45% 0.9 mph E1.4 kmh E 2.9 mph4.7 kmh 30.05 in1017.6 mb 0.00 in0.0 mm 0.00 in0.0 mm 0.00 in0.0 mm
05:08 AM 53.2°F11.8°C 33.4°F0.8°C 47% 0.9 mph WSW1.4 kmh WSW 4.0 mph6.4 kmh 30.05 in1017.6 mb 0.00 in0.0 mm 0.00 in0.0 mm 0.00 in0.0 mm
05:18 AM 52.3°F11.3°C 32.7°F0.4°C 47% Calm Calm 2.0 mph3.2 kmh 30.05 in1017.6 mb 0.00 in0.0 mm 0.00 in0.0 mm 0.00 in0.0 mm
05:29 AM 52.5°F11.4°C 33.4°F0.8°C 48% 0.9 mph SE1.4 kmh SE 4.0 mph6.4 kmh 30.05 in1017.6 mb 0.00 in0.0 mm 0.00 in0.0 mm 0.00 in0.0 mm
05:39 AM 54.3°F12.4°C 32.4°F0.2°C 43% 2.9 mph E4.7 kmh E 6.9 mph11.1 kmh 30.05 in1017.6 mb 0.00 in0.0 mm 0.00 in0.0 mm 0.00 in0.0 mm
05:49 AM 58.6°F14.8°C 32.4°F0.2°C 37% 4.0 mph ENE6.4 kmh ENE 8.1 mph13.0 kmh 30.05 in1017.6 mb 0.00 in0.0 mm 0.00 in0.0 mm 0.00 in0.0 mm
05:59 AM 64.0°F17.8°C 32.0°F0.0°C 30% 4.0 mph E6.4 kmh E 6.0 mph9.7 kmh 30.05 in1017.6 mb 0.00 in0.0 mm 0.00 in0.0 mm 0.00 in0.0 mm
06:09 AM 66.4°F19.1°C 31.5°F-0.3°C 27% 4.0 mph ENE6.4 kmh ENE 8.0 mph12.9 kmh 30.05 in1017.6 mb 0.00 in0.0 mm 0.00 in0.0 mm 0.00 in0.0 mm
06:19 AM 62.8°F17.1°C 32.5°F0.3°C 32% 2.9 mph NE4.7 kmh NE 8.1 mph13.0 kmh 30.05 in1017.6 mb 0.00 in0.0 mm 0.00 in0.0 mm 0.00 in0.0 mm
06:29 AM 60.8°F16.0°C 31.5°F-0.3°C 33% 2.9 mph ENE4.7 kmh ENE 4.9 mph7.9 kmh 30.05 in1017.6 mb 0.00 in0.0 mm 0.00 in0.0 mm 0.00 in0.0 mm
06:39 AM 59.4°F15.2°C 32.4°F0.2°C 36% 2.9 mph NE4.7 kmh NE 4.9 mph7.9 kmh 30.06 in1017.9 mb 0.00 in0.0 mm 0.00 in0.0 mm 0.00 in0.0 mm
06:49 AM 57.4°F14.1°C 32.0°F0.0°C 38% 2.0 mph ENE3.2 kmh ENE 4.9 mph7.9 kmh 30.06 in1017.9 mb 0.00 in0.0 mm 0.00 in0.0 mm 0.00 in0.0 mm
06:59 AM 56.5°F13.6°C 31.8°F-0.1°C 39% 2.9 mph ENE4.7 kmh ENE 4.9 mph7.9 kmh 30.06 in1017.9 mb 0.00 in0.0 mm 0.00 in0.0 mm 0.00 in0.0 mm
07:09 AM 55.2°F12.9°C 31.3°F-0.4°C 40% 0.9 mph E1.4 kmh E 2.9 mph4.7 kmh 30.06 in1017.9 mb 0.00 in0.0 mm 0.00 in0.0 mm 0.00 in0.0 mm
07:19 AM 54.7°F12.6°C 32.0°F0.0°C 42% 0.9 mph NE1.4 kmh NE 4.0 mph6.4 kmh 30.06 in1017.9 mb 0.00 in0.0 mm 0.00 in0.0 mm 0.00 in0.0 mm
07:29 AM 53.4°F11.9°C 32.0°F0.0°C 44% 0.9 mph ENE1.4 kmh ENE 2.9 mph4.7 kmh 30.06 in1017.9 mb 0.00 in0.0 mm 0.00 in0.0 mm 0.00 in0.0 mm
07:39 AM 53.1°F11.7°C 32.4°F0.2°C 45% 0.9 mph SE1.4 kmh SE 3.0 mph4.8 kmh 30.06 in1017.9 mb 0.00 in0.0 mm 0.00 in0.0 mm 0.00 in0.0 mm
07:49 AM 54.0°F12.2°C 32.5°F0.3°C 44% 0.9 mph NE1.4 kmh NE 2.9 mph4.7 kmh 30.06 in1017.9 mb 0.00 in0.0 mm 0.00 in0.0 mm 0.00 in0.0 mm
07:59 AM 52.9°F11.6°C 32.2°F0.1°C 45% 2.0 mph NE3.2 kmh NE 4.0 mph6.4 kmh 30.06 in1017.9 mb 0.00 in0.0 mm 0.00 in0.0 mm 0.00 in0.0 mm
08:09 AM 52.3°F11.3°C 32.2°F0.1°C 46% 2.0 mph ENE3.2 kmh ENE 4.9 mph7.9 kmh 30.06 in1017.9 mb 0.00 in0.0 mm 0.00 in0.0 mm 0.00 in0.0 mm
08:19 AM 52.5°F11.4°C 32.9°F0.5°C 47% 0.9 mph E1.4 kmh E 4.9 mph7.9 kmh 30.06 in1017.9 mb 0.00 in0.0 mm 0.00 in0.0 mm 0.00 in0.0 mm
08:29 AM 52.9°F11.6°C 32.7°F0.4°C 46% 0.9 mph E1.4 kmh E 5.0 mph8.0 kmh 30.06 in1017.9 mb 0.00 in0.0 mm 0.00 in0.0 mm 0.00 in0.0 mm
08:39 AM 53.4°F11.9°C 33.1°F0.6°C 46% 0.9 mph E1.4 kmh E 4.0 mph6.4 kmh 30.06 in1017.9 mb 0.00 in0.0 mm 0.00 in0.0 mm 0.00 in0.0 mm
08:49 AM 54.1°F12.3°C 34.3°F1.3°C 47% 2.0 mph NE3.2 kmh NE 4.9 mph7.9 kmh 30.06 in1017.9 mb 0.00 in0.0 mm 0.00 in0.0 mm 0.00 in0.0 mm
08:59 AM 55.6°F13.1°C 34.5°F1.4°C 45% Calm Calm 0.9 mph1.4 kmh 30.06 in1017.9 mb 0.00 in0.0 mm 0.00 in0.0 mm 0.00 in0.0 mm
09:09 AM 57.2°F14.0°C 34.9°F1.6°C 43% Calm Calm 0.9 mph1.4 kmh 30.06 in1017.9 mb 0.00 in0.0 mm 0.00 in0.0 mm 0.00 in0.0 mm
09:19 AM 58.3°F14.6°C 35.2°F1.8°C 42% 0.9 mph N1.4 kmh N 2.9 mph4.7 kmh 30.07 in1018.3 mb 0.00 in0.0 mm 0.00 in0.0 mm 0.00 in0.0 mm
09:29 AM 59.7°F15.4°C 36.0°F2.2°C 41% 0.9 mph ENE1.4 kmh ENE 4.0 mph6.4 kmh 30.06 in1017.9 mb 0.00 in0.0 mm 0.00 in0.0 mm 0.00 in0.0 mm
09:39 AM 61.7°F16.5°C 36.5°F2.5°C 39% 0.9 mph E1.4 kmh E 4.9 mph7.9 kmh 30.06 in1017.9 mb 0.00 in0.0 mm 0.00 in0.0 mm 0.00 in0.0 mm
09:49 AM 63.9°F17.7°C 37.0°F2.8°C 37% 2.0 mph E3.2 kmh E 4.0 mph6.4 kmh 30.06 in1017.9 mb 0.00 in0.0 mm 0.00 in0.0 mm 0.00 in0.0 mm
09:59 AM 65.5°F18.6°C 38.5°F3.6°C 37% 0.9 mph W1.4 kmh W 4.0 mph6.4 kmh 30.06 in1017.9 mb 0.00 in0.0 mm 0.00 in0.0 mm 0.00 in0.0 mm
10:09 AM 66.0°F18.9°C 37.6°F3.1°C 35% 2.0 mph WSW3.2 kmh WSW 2.9 mph4.7 kmh 30.06 in1017.9 mb 0.00 in0.0 mm 0.00 in0.0 mm 0.00 in0.0 mm
10:19 AM 68.2°F20.1°C 41.0°F5.0°C 37% Calm Calm 2.0 mph3.2 kmh 30.06 in1017.9 mb 0.00 in0.0 mm 0.00 in0.0 mm 0.00 in0.0 mm
10:29 AM 70.3°F21.3°C 40.6°F4.8°C 34% Calm Calm 2.0 mph3.2 kmh 30.06 in1017.9 mb 0.00 in0.0 mm 0.00 in0.0 mm 0.00 in0.0 mm
10:39 AM 72.0°F22.2°C 40.5°F4.7°C 32% 0.9 mph WSW1.4 kmh WSW 3.0 mph4.8 kmh 30.06 in1017.9 mb 0.00 in0.0 mm 0.00 in0.0 mm 0.00 in0.0 mm
10:49 AM 73.2°F22.9°C 41.5°F5.3°C 32% Calm Calm 3.0 mph4.8 kmh 30.06 in1017.9 mb 0.00 in0.0 mm 0.00 in0.0 mm 0.00 in0.0 mm
10:59 AM 75.0°F23.9°C 42.3°F5.7°C 31% Calm Calm 3.0 mph4.8 kmh 30.06 in1017.9 mb 0.00 in0.0 mm 0.00 in0.0 mm 0.00 in0.0 mm
11:09 AM 75.9°F24.4°C 42.3°F5.7°C 30% 0.9 mph W1.4 kmh W 2.9 mph4.7 kmh 30.06 in1017.9 mb 0.00 in0.0 mm 0.00 in0.0 mm 0.00 in0.0 mm
11:19 AM 77.2°F25.1°C 42.4°F5.8°C 29% Calm Calm 2.0 mph3.2 kmh 30.06 in1017.9 mb 0.00 in0.0 mm 0.00 in0.0 mm 0.00 in0.0 mm
11:29 AM 78.4°F25.8°C 43.5°F6.4°C 29% 0.9 mph NW1.4 kmh NW 3.0 mph4.8 kmh 30.05 in1017.6 mb 0.00 in0.0 mm 0.00 in0.0 mm 0.00 in0.0 mm
11:39 AM 80.1°F26.7°C 36.7°F2.6°C 21% Calm Calm 2.0 mph3.2 kmh 30.05 in1017.6 mb 0.00 in0.0 mm 0.00 in0.0 mm 0.00 in0.0 mm
11:49 AM 81.1°F27.3°C 33.6°F0.9°C 18% 2.0 mph NW3.2 kmh NW 8.1 mph13.0 kmh 30.05 in1017.6 mb 0.00 in0.0 mm 0.00 in0.0 mm 0.00 in0.0 mm
11:59 AM 82.8°F28.2°C 33.4°F0.8°C 17% 4.9 mph W7.9 kmh W 8.9 mph14.3 kmh 30.04 in1017.3 mb 0.00 in0.0 mm 0.00 in0.0 mm 0.00 in0.0 mm
12:09 PM 83.7°F28.7°C 31.1°F-0.5°C 15% 2.9 mph SSW4.7 kmh SSW 8.1 mph13.0 kmh 30.04 in1017.3 mb 0.00 in0.0 mm 0.00 in0.0 mm 0.00 in0.0 mm
12:19 PM 84.6°F29.2°C 33.4°F0.8°C 16% 0.9 mph NW1.4 kmh NW 4.9 mph7.9 kmh 30.03 in1016.9 mb 0.00 in0.0 mm 0.00 in0.0 mm 0.00 in0.0 mm
12:29 PM 84.6°F29.2°C 33.4°F0.8°C 16% 2.0 mph NE3.2 kmh NE 6.0 mph9.7 kmh 30.03 in1016.9 mb 0.00 in0.0 mm 0.00 in0.0 mm 0.00 in0.0 mm
12:39 PM 84.9°F29.4°C 30.4°F-0.9°C 14% 2.9 mph ESE4.7 kmh ESE 10.1 mph16.3 kmh 30.03 in1016.9 mb 0.00 in0.0 mm 0.00 in0.0 mm 0.00 in0.0 mm
12:49 PM 85.3°F29.6°C 32.4°F0.2°C 15% 2.0 mph N3.2 kmh N 6.9 mph11.1 kmh 30.02 in1016.6 mb 0.00 in0.0 mm 0.00 in0.0 mm 0.00 in0.0 mm
12:59 PM 86.0°F30.0°C 34.5°F1.4°C 16% 2.9 mph NNE4.7 kmh NNE 8.1 mph13.0 kmh 30.02 in1016.6 mb 0.00 in0.0 mm 0.00 in0.0 mm 0.00 in0.0 mm
01:09 PM 86.4°F30.2°C 31.5°F-0.3°C 14% 2.0 mph E3.2 kmh E 4.9 mph7.9 kmh 30.02 in1016.6 mb 0.00 in0.0 mm 0.00 in0.0 mm 0.00 in0.0 mm
01:19 PM 87.6°F30.9°C 32.5°F0.3°C 14% 2.0 mph SE3.2 kmh SE 6.0 mph9.7 kmh 30.01 in1016.3 mb 0.00 in0.0 mm 0.00 in0.0 mm 0.00 in0.0 mm
01:29 PM 86.0°F30.0°C 34.5°F1.4°C 16% 2.9 mph WNW4.7 kmh WNW 8.9 mph14.3 kmh 30.01 in1016.3 mb 0.00 in0.0 mm 0.00 in0.0 mm 0.00 in0.0 mm
01:39 PM 84.0°F28.9°C 34.5°F1.4°C 17% 6.0 mph WSW9.7 kmh WSW 12.1 mph19.5 kmh 30.01 in1016.3 mb 0.00 in0.0 mm 0.00 in0.0 mm 0.00 in0.0 mm
01:49 PM 83.8°F28.8°C 37.2°F2.9°C 19% 6.0 mph SSW9.7 kmh SSW 12.1 mph19.5 kmh 30.01 in1016.3 mb 0.00 in0.0 mm 0.00 in0.0 mm 0.00 in0.0 mm
01:59 PM 84.4°F29.1°C 36.3°F2.4°C 18% 4.9 mph WNW7.9 kmh WNW 10.1 mph16.3 kmh 30.01 in1016.3 mb 0.00 in0.0 mm 0.00 in0.0 mm 0.00 in0.0 mm
02:09 PM 84.2°F29.0°C 37.4°F3.0°C 19% 6.0 mph WSW9.7 kmh WSW 10.1 mph16.3 kmh 30.00 in1015.9 mb 0.00 in0.0 mm 0.00 in0.0 mm 0.00 in0.0 mm
02:19 PM 84.7°F29.3°C 37.9°F3.3°C 19% 4.0 mph WSW6.4 kmh WSW 6.9 mph11.1 kmh 30.00 in1015.9 mb 0.00 in0.0 mm 0.00 in0.0 mm 0.00 in0.0 mm
02:29 PM 84.9°F29.4°C 36.7°F2.6°C 18% 4.0 mph WSW6.4 kmh WSW 6.9 mph11.1 kmh 29.99 in1015.6 mb 0.00 in0.0 mm 0.00 in0.0 mm 0.00 in0.0 mm
02:39 PM 85.5°F29.7°C 37.0°F2.8°C 18% 2.9 mph WNW4.7 kmh WNW 6.9 mph11.1 kmh 29.99 in1015.6 mb 0.00 in0.0 mm 0.00 in0.0 mm 0.00 in0.0 mm
02:49 PM 84.9°F29.4°C 36.7°F2.6°C 18% 4.0 mph NW6.4 kmh NW 9.0 mph14.5 kmh 29.98 in1015.2 mb 0.00 in0.0 mm 0.00 in0.0 mm 0.00 in0.0 mm
02:59 PM 85.3°F29.6°C 37.0°F2.8°C 18% 2.9 mph WNW4.7 kmh WNW 6.9 mph11.1 kmh 29.98 in1015.2 mb 0.00 in0.0 mm 0.00 in0.0 mm 0.00 in0.0 mm
03:09 PM 85.5°F29.7°C 38.5°F3.6°C 19% 2.0 mph W3.2 kmh W 4.9 mph7.9 kmh 29.98 in1015.2 mb 0.00 in0.0 mm 0.00 in0.0 mm 0.00 in0.0 mm
03:19 PM 85.6°F29.8°C 37.2°F2.9°C 18% 2.0 mph W3.2 kmh W 4.9 mph7.9 kmh 29.98 in1015.2 mb 0.00 in0.0 mm 0.00 in0.0 mm 0.00 in0.0 mm
03:29 PM 85.6°F29.8°C 37.2°F2.9°C 18% 2.9 mph WSW4.7 kmh WSW 6.0 mph9.7 kmh 29.97 in1014.9 mb 0.00 in0.0 mm 0.00 in0.0 mm 0.00 in0.0 mm
03:39 PM 85.8°F29.9°C 37.4°F3.0°C 18% 2.9 mph W4.7 kmh W 6.0 mph9.7 kmh 29.97 in1014.9 mb 0.00 in0.0 mm 0.00 in0.0 mm 0.00 in0.0 mm
03:49 PM 85.8°F29.9°C 37.4°F3.0°C 18% 2.9 mph WNW4.7 kmh WNW 6.0 mph9.7 kmh 29.96 in1014.6 mb 0.00 in0.0 mm 0.00 in0.0 mm 0.00 in0.0 mm
03:59 PM 86.2°F30.1°C 36.3°F2.4°C 17% 2.9 mph WNW4.7 kmh WNW 8.1 mph13.0 kmh 29.96 in1014.6 mb 0.00 in0.0 mm 0.00 in0.0 mm 0.00 in0.0 mm
04:09 PM 84.9°F29.4°C 36.7°F2.6°C 18% 4.9 mph W7.9 kmh W 8.1 mph13.0 kmh 29.96 in1014.6 mb 0.00 in0.0 mm 0.00 in0.0 mm 0.00 in0.0 mm
04:19 PM 84.7°F29.3°C 37.9°F3.3°C 19% 4.0 mph W6.4 kmh W 9.0 mph14.5 kmh 29.97 in1014.9 mb 0.00 in0.0 mm 0.00 in0.0 mm 0.00 in0.0 mm
04:29 PM 84.0°F28.9°C 37.4°F3.0°C 19% 6.0 mph WSW9.7 kmh WSW 8.9 mph14.3 kmh 29.97 in1014.9 mb 0.00 in0.0 mm 0.00 in0.0 mm 0.00 in0.0 mm
04:39 PM 83.1°F28.4°C 35.2°F1.8°C 18% 4.0 mph SW6.4 kmh SW 10.1 mph16.3 kmh 29.97 in1014.9 mb 0.00 in0.0 mm 0.00 in0.0 mm 0.00 in0.0 mm
04:49 PM 82.9°F28.3°C 35.1°F1.7°C 18% 2.9 mph WSW4.7 kmh WSW 6.0 mph9.7 kmh 29.96 in1014.6 mb 0.00 in0.0 mm 0.00 in0.0 mm 0.00 in0.0 mm
04:59 PM 82.4°F28.0°C 36.0°F2.2°C 19% 2.9 mph WSW4.7 kmh WSW 8.1 mph13.0 kmh 29.96 in1014.6 mb 0.00 in0.0 mm 0.00 in0.0 mm 0.00 in0.0 mm
05:09 PM 81.7°F27.6°C 35.4°F1.9°C 19% 2.0 mph S3.2 kmh S 4.9 mph7.9 kmh 29.96 in1014.6 mb 0.00 in0.0 mm 0.00 in0.0 mm 0.00 in0.0 mm
05:19 PM 80.4°F26.9°C 35.6°F2.0°C 20% 0.9 mph SW1.4 kmh SW 4.0 mph6.4 kmh 29.96 in1014.6 mb 0.00 in0.0 mm 0.00 in0.0 mm 0.00 in0.0 mm
05:29 PM 80.1°F26.7°C 34.2°F1.2°C 19% 0.9 mph SSW1.4 kmh SSW 2.9 mph4.7 kmh 29.96 in1014.6 mb 0.00 in0.0 mm 0.00 in0.0 mm 0.00 in0.0 mm
05:39 PM 79.0°F26.1°C 35.8°F2.1°C 21% Calm Calm 2.9 mph4.7 kmh 29.97 in1014.9 mb 0.00 in0.0 mm 0.00 in0.0 mm 0.00 in0.0 mm
05:49 PM 78.1°F25.6°C 37.2°F2.9°C 23% Calm Calm 0.9 mph1.4 kmh 29.96 in1014.6 mb 0.00 in0.0 mm 0.00 in0.0 mm 0.00 in0.0 mm
05:59 PM 76.1°F24.5°C 37.8°F3.2°C 25% Calm Calm 0.9 mph1.4 kmh 29.97 in1014.9 mb 0.00 in0.0 mm 0.00 in0.0 mm 0.00 in0.0 mm
06:09 PM 73.6°F23.1°C 40.3°F4.6°C 30% 0.9 mph SSE1.4 kmh SSE 2.0 mph3.2 kmh 29.97 in1014.9 mb 0.00 in0.0 mm 0.00 in0.0 mm 0.00 in0.0 mm
06:19 PM 71.8°F22.1°C 38.7°F3.7°C 30% 0.9 mph SE1.4 kmh SE 2.0 mph3.2 kmh 29.97 in1014.9 mb 0.00 in0.0 mm 0.00 in0.0 mm 0.00 in0.0 mm
06:29 PM 70.3°F21.3°C 39.9°F4.4°C 33% 0.9 mph SE1.4 kmh SE 2.0 mph3.2 kmh 29.97 in1014.9 mb 0.00 in0.0 mm 0.00 in0.0 mm 0.00 in0.0 mm
06:39 PM 69.3°F20.7°C 40.5°F4.7°C 35% Calm Calm 0.9 mph1.4 kmh 29.98 in1015.2 mb 0.00 in0.0 mm 0.00 in0.0 mm 0.00 in0.0 mm
06:49 PM 68.2°F20.1°C 38.7°F3.7°C 34% 0.9 mph SE1.4 kmh SE 2.0 mph3.2 kmh 29.98 in1015.2 mb 0.00 in0.0 mm 0.00 in0.0 mm 0.00 in0.0 mm
06:59 PM 66.9°F19.4°C 40.5°F4.7°C 38% 0.9 mph ESE1.4 kmh ESE 2.0 mph3.2 kmh 29.98 in1015.2 mb 0.00 in0.0 mm 0.00 in0.0 mm 0.00 in0.0 mm
07:09 PM 66.6°F19.2°C 39.6°F4.2°C 37% 0.9 mph ESE1.4 kmh ESE 2.9 mph4.7 kmh 29.99 in1015.6 mb 0.00 in0.0 mm 0.00 in0.0 mm 0.00 in0.0 mm
07:19 PM 66.4°F19.1°C 39.4°F4.1°C 37% 0.9 mph E1.4 kmh E 2.9 mph4.7 kmh 29.99 in1015.6 mb 0.00 in0.0 mm 0.00 in0.0 mm 0.00 in0.0 mm
07:29 PM 65.1°F18.4°C 39.6°F4.2°C 39% Calm Calm 0.9 mph1.4 kmh 30.00 in1015.9 mb 0.00 in0.0 mm 0.00 in0.0 mm 0.00 in0.0 mm
07:39 PM 64.9°F18.3°C 38.1°F3.4°C 37% Calm Calm 2.0 mph3.2 kmh 30.00 in1015.9 mb 0.00 in0.0 mm 0.00 in0.0 mm 0.00 in0.0 mm
07:49 PM 65.3°F18.5°C 38.3°F3.5°C 37% 0.9 mph ENE1.4 kmh ENE 2.0 mph3.2 kmh 30.00 in1015.9 mb 0.00 in0.0 mm 0.00 in0.0 mm 0.00 in0.0 mm
07:59 PM 64.9°F18.3°C 38.1°F3.4°C 37% 0.9 mph E1.4 kmh E 2.9 mph4.7 kmh 30.01 in1016.3 mb 0.00 in0.0 mm 0.00 in0.0 mm 0.00 in0.0 mm
08:09 PM 63.1°F17.3°C 39.0°F3.9°C 41% Calm Calm 0.9 mph1.4 kmh 30.01 in1016.3 mb 0.00 in0.0 mm 0.00 in0.0 mm 0.00 in0.0 mm
08:19 PM 62.4°F16.9°C 37.8°F3.2°C 40% Calm Calm 3.0 mph4.8 kmh 30.02 in1016.6 mb 0.00 in0.0 mm 0.00 in0.0 mm 0.00 in0.0 mm
08:29 PM 63.9°F17.7°C 37.8°F3.2°C 38% 2.9 mph E4.7 kmh E 7.0 mph11.3 kmh 30.01 in1016.3 mb 0.00 in0.0 mm 0.00 in0.0 mm 0.00 in0.0 mm
08:39 PM 64.6°F18.1°C 37.8°F3.2°C 37% 4.0 mph ESE6.4 kmh ESE 6.0 mph9.7 kmh 30.02 in1016.6 mb 0.00 in0.0 mm 0.00 in0.0 mm 0.00 in0.0 mm
08:49 PM 63.9°F17.7°C 37.0°F2.8°C 37% 0.9 mph ENE1.4 kmh ENE 2.0 mph3.2 kmh 30.02 in1016.6 mb 0.00 in0.0 mm 0.00 in0.0 mm 0.00 in0.0 mm
08:59 PM 63.0°F17.2°C 37.6°F3.1°C 39% 2.0 mph NE3.2 kmh NE 6.0 mph9.7 kmh 30.02 in1016.6 mb 0.00 in0.0 mm 0.00 in0.0 mm 0.00 in0.0 mm
09:09 PM 62.4°F16.9°C 37.2°F2.9°C 39% 2.9 mph ENE4.7 kmh ENE 6.0 mph9.7 kmh 30.01 in1016.3 mb 0.00 in0.0 mm 0.00 in0.0 mm 0.00 in0.0 mm
09:19 PM 62.8°F17.1°C 36.9°F2.7°C 38% 2.9 mph ENE4.7 kmh ENE 6.0 mph9.7 kmh 30.01 in1016.3 mb 0.00 in0.0 mm 0.00 in0.0 mm 0.00 in0.0 mm
09:29 PM 62.2°F16.8°C 35.6°F2.0°C 37% 2.9 mph NE4.7 kmh NE 6.0 mph9.7 kmh 30.01 in1016.3 mb 0.00 in0.0 mm 0.00 in0.0 mm 0.00 in0.0 mm
09:39 PM 61.5°F16.4°C 36.3°F2.4°C 39% 2.0 mph E3.2 kmh E 4.9 mph7.9 kmh 30.02 in1016.6 mb 0.00 in0.0 mm 0.00 in0.0 mm 0.00 in0.0 mm
09:49 PM 60.4°F15.8°C 36.7°F2.6°C 41% 2.0 mph NE3.2 kmh NE 4.9 mph7.9 kmh 30.02 in1016.6 mb 0.00 in0.0 mm 0.00 in0.0 mm 0.00 in0.0 mm
09:59 PM 61.2°F16.2°C 36.0°F2.2°C 39% 2.9 mph NE4.7 kmh NE 6.0 mph9.7 kmh 30.02 in1016.6 mb 0.00 in0.0 mm 0.00 in0.0 mm 0.00 in0.0 mm
10:09 PM 60.4°F15.8°C 36.0°F2.2°C 40% 2.0 mph ENE3.2 kmh ENE 4.9 mph7.9 kmh 30.02 in1016.6 mb 0.00 in0.0 mm 0.00 in0.0 mm 0.00 in0.0 mm
10:19 PM 60.1°F15.6°C 35.1°F1.7°C 39% 2.9 mph NE4.7 kmh NE 4.9 mph7.9 kmh 30.01 in1016.3 mb 0.00 in0.0 mm 0.00 in0.0 mm 0.00 in0.0 mm
10:29 PM 59.7°F15.4°C 36.0°F2.2°C 41% 0.9 mph SE1.4 kmh SE 2.9 mph4.7 kmh 30.02 in1016.6 mb 0.00 in0.0 mm 0.00 in0.0 mm 0.00 in0.0 mm
10:39 PM 57.9°F14.4°C 36.1°F2.3°C 44% 0.9 mph E1.4 kmh E 3.0 mph4.8 kmh 30.02 in1016.6 mb 0.00 in0.0 mm 0.00 in0.0 mm 0.00 in0.0 mm
10:49 PM 57.9°F14.4°C 35.6°F2.0°C 43% 2.0 mph E3.2 kmh E 5.0 mph8.0 kmh 30.02 in1016.6 mb 0.00 in0.0 mm 0.00 in0.0 mm 0.00 in0.0 mm
10:59 PM 59.4°F15.2°C 34.3°F1.3°C 39% 4.0 mph ENE6.4 kmh ENE 8.1 mph13.0 kmh 30.02 in1016.6 mb 0.00 in0.0 mm 0.00 in0.0 mm 0.00 in0.0 mm
11:09 PM 59.2°F15.1°C 34.9°F1.6°C 40% 2.9 mph ESE4.7 kmh ESE 6.0 mph9.7 kmh 30.02 in1016.6 mb 0.00 in0.0 mm 0.00 in0.0 mm 0.00 in0.0 mm
11:19 PM 57.9°F14.4°C 34.3°F1.3°C 41% 0.9 mph E1.4 kmh E 5.0 mph8.0 kmh 30.02 in1016.6 mb 0.00 in0.0 mm 0.00 in0.0 mm 0.00 in0.0 mm
11:29 PM 58.3°F14.6°C 34.0°F1.1°C 40% 2.0 mph NE3.2 kmh NE 4.9 mph7.9 kmh 30.02 in1016.6 mb 0.00 in0.0 mm 0.00 in0.0 mm 0.00 in0.0 mm
11:39 PM 57.7°F14.3°C 33.6°F0.9°C 40% 2.0 mph SE3.2 kmh SE 5.0 mph8.0 kmh 30.02 in1016.6 mb 0.00 in0.0 mm 0.00 in0.0 mm 0.00 in0.0 mm
11:49 PM 57.4°F14.1°C 33.8°F1.0°C 41% Calm Calm 2.9 mph4.7 kmh 30.02 in1016.6 mb 0.00 in0.0 mm 0.00 in0.0 mm 0.00 in0.0 mm
11:59 PM 57.9°F14.4°C 32.5°F0.3°C 38% 2.0 mph E3.2 kmh E 5.0 mph8.0 kmh 30.02 in1016.6 mb 0.00 in0.0 mm 0.00 in0.0 mm 0.00 in0.0 mm